San Jose, Costa Rica
Current Conditions -  °F | °C
As of 4:00 AM on Saturday 29 Nov 2014 (Local Time) from MROC Reporting Station
Few Clouds Few Clouds  
Wind Chill: 21°   Ceiling: Unl
Heat Index: 21°   Visibility: 6mi
Dew Point: 16°   Wind: 15mph
Humidity: 73%   Direction: 100°E
Pressure: 29.92"   Gusts: 26mph
Location:  10°N, 84.22°W
Report Text: MROC 291000Z 10013G23KT 9999 FEW035 21/16 A2992 NOSIG
Loading
Personal Weather Stations






























Interactive Weather Map New forecast layout! Learn more

10-Day Weather Forecast

Advertisements
Track Severe Weather on mobile